sensor_id;sensor_type;location;lat;lon;timestamp;pressure;altitude;pressure_sealevel;temperature;humidity
70250;BME280;57644;48.416;-123.374;2023-02-10T00:01:22;101649.71;;;1.24;100.00
70250;BME280;57644;48.416;-123.374;2023-02-10T00:03:51;101636.81;;;0.93;100.00
70250;BME280;57644;48.416;-123.374;2023-02-10T00:06:23;101628.45;;;0.89;100.00
70250;BME280;57644;48.416;-123.374;2023-02-10T00:08:54;101618.96;;;0.59;100.00
70250;BME280;57644;48.416;-123.374;2023-02-10T00:11:23;101619.42;;;0.31;100.00
70250;BME280;57644;48.416;-123.374;2023-02-10T00:13:53;101618.77;;;0.59;100.00
70250;BME280;57644;48.416;-123.374;2023-02-10T00:16:23;101609.49;;;0.70;100.00
70250;BME280;57644;48.416;-123.374;2023-02-10T00:18:58;101599.71;;;0.73;100.00
70250;BME280;57644;48.416;-123.374;2023-02-10T00:21:24;101595.74;;;0.67;100.00
70250;BME280;57644;48.416;-123.374;2023-02-10T00:23:54;101598.78;;;0.67;100.00
70250;BME280;57644;48.416;-123.374;2023-02-10T00:26:25;101602.06;;;0.71;100.00
70250;BME280;57644;48.416;-123.374;2023-02-10T00:28:56;101603.52;;;0.78;100.00
70250;BME280;57644;48.416;-123.374;2023-02-10T00:31:26;101601.44;;;0.85;100.00
70250;BME280;57644;48.416;-123.374;2023-02-10T00:33:56;101602.85;;;0.97;100.00
70250;BME280;57644;48.416;-123.374;2023-02-10T00:36:27;101599.97;;;0.83;100.00
70250;BME280;57644;48.416;-123.374;2023-02-10T00:38:59;101594.74;;;0.89;100.00
70250;BME280;57644;48.416;-123.374;2023-02-10T00:41:27;101587.30;;;0.79;100.00
70250;BME280;57644;48.416;-123.374;2023-02-10T00:43:58;101569.27;;;0.77;100.00
70250;BME280;57644;48.416;-123.374;2023-02-10T00:46:30;101565.58;;;0.83;100.00
70250;BME280;57644;48.416;-123.374;2023-02-10T00:48:59;101568.81;;;0.82;100.00
70250;BME280;57644;48.416;-123.374;2023-02-10T00:51:29;101567.11;;;0.75;100.00
70250;BME280;57644;48.416;-123.374;2023-02-10T00:54:00;101568.09;;;0.72;100.00
70250;BME280;57644;48.416;-123.374;2023-02-10T00:56:30;101558.00;;;0.66;100.00
70250;BME280;57644;48.416;-123.374;2023-02-10T00:59:02;101549.24;;;0.57;100.00
70250;BME280;57644;48.416;-123.374;2023-02-10T01:01:32;101554.18;;;0.60;100.00
70250;BME280;57644;48.416;-123.374;2023-02-10T01:04:02;101550.42;;;0.54;100.00
70250;BME280;57644;48.416;-123.374;2023-02-10T01:06:32;101550.76;;;0.58;100.00
70250;BME280;57644;48.416;-123.374;2023-02-10T01:09:06;101542.85;;;0.64;100.00
70250;BME280;57644;48.416;-123.374;2023-02-10T01:11:34;101535.94;;;0.66;100.00
70250;BME280;57644;48.416;-123.374;2023-02-10T01:14:04;101533.32;;;0.60;100.00
70250;BME280;57644;48.416;-123.374;2023-02-10T01:16:34;101531.20;;;0.60;100.00
70250;BME280;57644;48.416;-123.374;2023-02-10T01:19:05;101526.58;;;0.65;100.00
70250;BME280;57644;48.416;-123.374;2023-02-10T01:21:35;101516.04;;;0.58;100.00
70250;BME280;57644;48.416;-123.374;2023-02-10T01:24:07;101526.72;;;0.58;100.00
70250;BME280;57644;48.416;-123.374;2023-02-10T01:26:36;101523.46;;;0.56;100.00
70250;BME280;57644;48.416;-123.374;2023-02-10T01:29:07;101520.87;;;0.45;100.00
70250;BME280;57644;48.416;-123.374;2023-02-10T01:31:37;101518.27;;;0.49;100.00
70250;BME280;57644;48.416;-123.374;2023-02-10T01:34:08;101510.90;;;0.34;100.00
70250;BME280;57644;48.416;-123.374;2023-02-10T01:36:38;101505.54;;;0.34;100.00
70250;BME280;57644;48.416;-123.374;2023-02-10T01:39:10;101502.44;;;0.35;100.00
70250;BME280;57644;48.416;-123.374;2023-02-10T01:41:39;101498.63;;;0.45;100.00
70250;BME280;57644;48.416;-123.374;2023-02-10T01:46:40;101495.61;;;0.05;100.00
70250;BME280;57644;48.416;-123.374;2023-02-10T01:49:14;101495.59;;;0.15;100.00
70250;BME280;57644;48.416;-123.374;2023-02-10T01:51:44;101483.41;;;0.05;100.00
70250;BME280;57644;48.416;-123.374;2023-02-10T01:54:15;101478.14;;;-0.08;100.00
70250;BME280;57644;48.416;-123.374;2023-02-10T01:56:43;101484.34;;;0.17;100.00
70250;BME280;57644;48.416;-123.374;2023-02-10T01:59:14;101478.69;;;0.02;100.00
70250;BME280;57644;48.416;-123.374;2023-02-10T02:01:44;101473.84;;;-0.06;100.00
70250;BME280;57644;48.416;-123.374;2023-02-10T02:04:14;101473.20;;;-0.04;100.00
70250;BME280;57644;48.416;-123.374;2023-02-10T02:06:44;101463.03;;;-0.20;100.00
70250;BME280;57644;48.416;-123.374;2023-02-10T02:09:15;101458.57;;;-0.11;100.00
70250;BME280;57644;48.416;-123.374;2023-02-10T02:11:52;101458.69;;;-0.14;100.00
70250;BME280;57644;48.416;-123.374;2023-02-10T02:14:28;101464.46;;;-0.18;100.00
70250;BME280;57644;48.416;-123.374;2023-02-10T02:16:57;101455.77;;;-0.14;100.00
70250;BME280;57644;48.416;-123.374;2023-02-10T02:27:04;101461.30;;;-0.13;100.00
70250;BME280;57644;48.416;-123.374;2023-02-10T02:29:34;101456.34;;;-0.08;100.00
70250;BME280;57644;48.416;-123.374;2023-02-10T02:34:26;101433.68;;;-0.14;100.00
70250;BME280;57644;48.416;-123.374;2023-02-10T02:36:54;101413.86;;;-0.28;100.00
70250;BME280;57644;48.416;-123.374;2023-02-10T02:39:22;101408.41;;;-0.23;100.00
70250;BME280;57644;48.416;-123.374;2023-02-10T02:44:23;101391.25;;;-0.26;100.00
70250;BME280;57644;48.416;-123.374;2023-02-10T02:46:58;101379.65;;;-0.32;100.00
70250;BME280;57644;48.416;-123.374;2023-02-10T02:49:29;101358.28;;;-0.71;100.00
70250;BME280;57644;48.416;-123.374;2023-02-10T02:52:00;101353.47;;;-0.49;100.00
70250;BME280;57644;48.416;-123.374;2023-02-10T02:54:27;101358.30;;;-0.59;100.00
70250;BME280;57644;48.416;-123.374;2023-02-10T02:56:59;101359.18;;;-0.43;100.00
70250;BME280;57644;48.416;-123.374;2023-02-10T02:59:30;101352.33;;;-0.42;100.00
70250;BME280;57644;48.416;-123.374;2023-02-10T03:01:58;101346.54;;;-0.34;100.00
70250;BME280;57644;48.416;-123.374;2023-02-10T03:04:28;101336.34;;;-0.31;100.00
70250;BME280;57644;48.416;-123.374;2023-02-10T03:06:56;101343.79;;;-0.34;100.00
70250;BME280;57644;48.416;-123.374;2023-02-10T03:09:28;101344.10;;;-0.33;100.00
70250;BME280;57644;48.416;-123.374;2023-02-10T03:11:57;101337.92;;;-0.24;100.00
70250;BME280;57644;48.416;-123.374;2023-02-10T03:14:28;101335.51;;;-0.22;100.00
70250;BME280;57644;48.416;-123.374;2023-02-10T03:16:58;101329.54;;;-0.22;100.00
70250;BME280;57644;48.416;-123.374;2023-02-10T03:19:28;101325.99;;;-0.32;100.00
70250;BME280;57644;48.416;-123.374;2023-02-10T03:21:59;101330.08;;;-0.27;100.00
70250;BME280;57644;48.416;-123.374;2023-02-10T03:24:29;101325.93;;;-0.24;100.00
70250;BME280;57644;48.416;-123.374;2023-02-10T03:27:00;101298.53;;;-0.27;100.00
70250;BME280;57644;48.416;-123.374;2023-02-10T03:29:30;101289.12;;;-0.27;100.00
70250;BME280;57644;48.416;-123.374;2023-02-10T03:32:01;101285.18;;;-0.59;100.00
70250;BME280;57644;48.416;-123.374;2023-02-10T03:34:32;101264.65;;;-0.56;100.00
70250;BME280;57644;48.416;-123.374;2023-02-10T03:37:02;101234.08;;;-0.42;100.00
70250;BME280;57644;48.416;-123.374;2023-02-10T03:39:32;101226.73;;;-0.42;100.00
70250;BME280;57644;48.416;-123.374;2023-02-10T03:42:03;101206.10;;;-0.45;100.00
70250;BME280;57644;48.416;-123.374;2023-02-10T03:44:33;101210.31;;;-0.45;100.00
70250;BME280;57644;48.416;-123.374;2023-02-10T03:47:04;101233.38;;;-0.43;100.00
70250;BME280;57644;48.416;-123.374;2023-02-10T03:49:35;101259.18;;;-0.32;100.00
70250;BME280;57644;48.416;-123.374;2023-02-10T03:52:05;101255.25;;;-0.19;100.00
70250;BME280;57644;48.416;-123.374;2023-02-10T03:54:35;101270.40;;;-0.10;100.00
70250;BME280;57644;48.416;-123.374;2023-02-10T03:57:06;101275.68;;;-0.01;100.00
70250;BME280;57644;48.416;-123.374;2023-02-10T03:59:37;101286.88;;;0.10;100.00
70250;BME280;57644;48.416;-123.374;2023-02-10T04:02:06;101292.54;;;-0.07;100.00
70250;BME280;57644;48.416;-123.374;2023-02-10T04:04:37;101294.53;;;0.05;100.00
70250;BME280;57644;48.416;-123.374;2023-02-10T04:07:07;101288.41;;;-0.17;100.00
70250;BME280;57644;48.416;-123.374;2023-02-10T04:09:38;101293.50;;;-0.01;100.00
70250;BME280;57644;48.416;-123.374;2023-02-10T04:12:08;101281.96;;;0.03;100.00
70250;BME280;57644;48.416;-123.374;2023-02-10T04:14:39;101300.25;;;0.08;100.00
70250;BME280;57644;48.416;-123.374;2023-02-10T04:17:10;101304.79;;;0.00;100.00
70250;BME280;57644;48.416;-123.374;2023-02-10T04:19:41;101307.58;;;-0.01;100.00
70250;BME280;57644;48.416;-123.374;2023-02-10T04:22:10;101311.14;;;0.01;100.00
70250;BME280;57644;48.416;-123.374;2023-02-10T04:24:41;101310.24;;;-0.10;100.00
70250;BME280;57644;48.416;-123.374;2023-02-10T04:27:12;101310.28;;;-0.03;100.00
70250;BME280;57644;48.416;-123.374;2023-02-10T04:29:42;101325.47;;;0.04;100.00
70250;BME280;57644;48.416;-123.374;2023-02-10T04:32:12;101335.87;;;0.10;100.00
70250;BME280;57644;48.416;-123.374;2023-02-10T04:34:43;101345.27;;;0.18;100.00
70250;BME280;57644;48.416;-123.374;2023-02-10T04:37:13;101341.32;;;0.22;100.00
70250;BME280;57644;48.416;-123.374;2023-02-10T04:39:44;101343.41;;;0.16;100.00
70250;BME280;57644;48.416;-123.374;2023-02-10T04:42:14;101340.32;;;0.18;100.00
70250;BME280;57644;48.416;-123.374;2023-02-10T04:44:44;101337.06;;;-0.01;100.00
70250;BME280;57644;48.416;-123.374;2023-02-10T04:47:15;101352.24;;;0.09;100.00
70250;BME280;57644;48.416;-123.374;2023-02-10T04:49:46;101343.02;;;0.13;100.00
70250;BME280;57644;48.416;-123.374;2023-02-10T04:52:16;101337.99;;;0.05;100.00
70250;BME280;57644;48.416;-123.374;2023-02-10T04:54:47;101340.45;;;0.07;100.00
70250;BME280;57644;48.416;-123.374;2023-02-10T04:57:18;101348.57;;;0.07;100.00
70250;BME280;57644;48.416;-123.374;2023-02-10T04:59:48;101346.70;;;0.05;100.00
70250;BME280;57644;48.416;-123.374;2023-02-10T05:02:19;101342.27;;;-0.05;100.00
70250;BME280;57644;48.416;-123.374;2023-02-10T05:04:49;101339.20;;;-0.17;100.00
70250;BME280;57644;48.416;-123.374;2023-02-10T05:07:20;101337.42;;;-0.23;100.00
70250;BME280;57644;48.416;-123.374;2023-02-10T05:09:51;101345.77;;;-0.15;100.00
70250;BME280;57644;48.416;-123.374;2023-02-10T05:12:21;101357.04;;;-0.19;100.00
70250;BME280;57644;48.416;-123.374;2023-02-10T05:14:52;101350.72;;;-0.31;100.00
70250;BME280;57644;48.416;-123.374;2023-02-10T05:17:22;101355.69;;;-0.46;100.00
70250;BME280;57644;48.416;-123.374;2023-02-10T05:19:54;101348.82;;;-0.32;100.00
70250;BME280;57644;48.416;-123.374;2023-02-10T05:22:23;101344.49;;;-0.18;100.00
70250;BME280;57644;48.416;-123.374;2023-02-10T05:24:54;101338.17;;;-0.05;100.00
70250;BME280;57644;48.416;-123.374;2023-02-10T05:27:25;101343.53;;;0.05;100.00
70250;BME280;57644;48.416;-123.374;2023-02-10T05:29:56;101344.80;;;0.03;100.00
70250;BME280;57644;48.416;-123.374;2023-02-10T05:32:25;101359.20;;;0.14;100.00
70250;BME280;57644;48.416;-123.374;2023-02-10T05:34:55;101364.51;;;-0.01;100.00
70250;BME280;57644;48.416;-123.374;2023-02-10T05:37:25;101364.27;;;-0.06;100.00
70250;BME280;57644;48.416;-123.374;2023-02-10T05:39:56;101369.06;;;-0.00;100.00
70250;BME280;57644;48.416;-123.374;2023-02-10T05:42:26;101377.33;;;0.08;100.00
70250;BME280;57644;48.416;-123.374;2023-02-10T05:44:57;101372.57;;;0.16;100.00
70250;BME280;57644;48.416;-123.374;2023-02-10T05:47:27;101378.19;;;0.13;100.00
70250;BME280;57644;48.416;-123.374;2023-02-10T05:49:57;101378.90;;;0.18;100.00
70250;BME280;57644;48.416;-123.374;2023-02-10T05:52:27;101378.32;;;0.30;100.00
70250;BME280;57644;48.416;-123.374;2023-02-10T05:54:58;101381.35;;;0.34;100.00
70250;BME280;57644;48.416;-123.374;2023-02-10T05:57:28;101404.49;;;0.38;100.00
70250;BME280;57644;48.416;-123.374;2023-02-10T05:59:59;101412.12;;;0.37;100.00
70250;BME280;57644;48.416;-123.374;2023-02-10T06:02:29;101409.56;;;0.37;100.00
70250;BME280;57644;48.416;-123.374;2023-02-10T06:05:00;101410.81;;;0.38;100.00
70250;BME280;57644;48.416;-123.374;2023-02-10T06:07:30;101414.35;;;0.36;100.00
70250;BME280;57644;48.416;-123.374;2023-02-10T06:10:01;101426.00;;;0.31;100.00
70250;BME280;57644;48.416;-123.374;2023-02-10T06:12:31;101430.97;;;0.31;100.00
70250;BME280;57644;48.416;-123.374;2023-02-10T06:15:02;101442.23;;;0.23;100.00
70250;BME280;57644;48.416;-123.374;2023-02-10T06:17:32;101460.92;;;0.29;100.00
70250;BME280;57644;48.416;-123.374;2023-02-10T06:20:03;101464.84;;;0.32;100.00
70250;BME280;57644;48.416;-123.374;2023-02-10T06:22:33;101469.30;;;0.19;100.00
70250;BME280;57644;48.416;-123.374;2023-02-10T06:25:05;101490.49;;;0.18;100.00
70250;BME280;57644;48.416;-123.374;2023-02-10T06:27:34;101496.04;;;0.23;100.00
70250;BME280;57644;48.416;-123.374;2023-02-10T06:30:06;101506.83;;;0.21;100.00
70250;BME280;57644;48.416;-123.374;2023-02-10T06:32:35;101517.39;;;0.12;100.00
70250;BME280;57644;48.416;-123.374;2023-02-10T06:35:07;101533.16;;;-0.01;100.00
70250;BME280;57644;48.416;-123.374;2023-02-10T06:37:36;101542.78;;;-0.04;100.00
70250;BME280;57644;48.416;-123.374;2023-02-10T06:40:08;101554.19;;;-0.02;100.00
70250;BME280;57644;48.416;-123.374;2023-02-10T06:42:37;101559.36;;;-0.30;100.00
70250;BME280;57644;48.416;-123.374;2023-02-10T06:45:08;101574.54;;;-0.61;100.00
70250;BME280;57644;48.416;-123.374;2023-02-10T06:47:39;101583.90;;;-0.47;100.00
70250;BME280;57644;48.416;-123.374;2023-02-10T06:50:09;101589.30;;;-0.46;100.00
70250;BME280;57644;48.416;-123.374;2023-02-10T06:52:39;101588.56;;;-0.51;100.00
70250;BME280;57644;48.416;-123.374;2023-02-10T06:55:10;101599.28;;;-0.53;100.00
70250;BME280;57644;48.416;-123.374;2023-02-10T06:57:41;101595.33;;;-0.76;100.00
70250;BME280;57644;48.416;-123.374;2023-02-10T07:00:13;101603.84;;;-0.63;100.00
70250;BME280;57644;48.416;-123.374;2023-02-10T07:02:41;101607.43;;;-0.61;100.00
70250;BME280;57644;48.416;-123.374;2023-02-10T07:05:12;101607.97;;;-0.64;100.00
70250;BME280;57644;48.416;-123.374;2023-02-10T07:07:43;101610.19;;;-0.78;100.00
70250;BME280;57644;48.416;-123.374;2023-02-10T07:10:14;101614.23;;;-0.82;100.00
70250;BME280;57644;48.416;-123.374;2023-02-10T07:12:44;101607.18;;;-1.18;100.00
70250;BME280;57644;48.416;-123.374;2023-02-10T07:15:15;101608.68;;;-0.78;100.00
70250;BME280;57644;48.416;-123.374;2023-02-10T07:17:45;101612.88;;;-0.58;100.00
70250;BME280;57644;48.416;-123.374;2023-02-10T07:20:15;101609.17;;;-0.65;100.00
70250;BME280;57644;48.416;-123.374;2023-02-10T07:22:46;101607.73;;;-0.49;100.00
70250;BME280;57644;48.416;-123.374;2023-02-10T07:25:16;101607.82;;;-0.37;100.00
70250;BME280;57644;48.416;-123.374;2023-02-10T07:27:47;101612.98;;;-0.29;100.00
70250;BME280;57644;48.416;-123.374;2023-02-10T07:30:17;101611.53;;;-0.48;100.00
70250;BME280;57644;48.416;-123.374;2023-02-10T07:32:48;101622.83;;;-0.30;100.00
70250;BME280;57644;48.416;-123.374;2023-02-10T07:35:19;101624.93;;;-0.24;100.00
70250;BME280;57644;48.416;-123.374;2023-02-10T07:37:49;101630.98;;;-0.21;100.00
70250;BME280;57644;48.416;-123.374;2023-02-10T07:40:19;101630.47;;;-0.17;100.00
70250;BME280;57644;48.416;-123.374;2023-02-10T07:42:50;101628.82;;;-0.32;100.00
70250;BME280;57644;48.416;-123.374;2023-02-10T07:45:20;101632.47;;;-0.40;100.00
70250;BME280;57644;48.416;-123.374;2023-02-10T07:47:51;101636.23;;;-0.34;100.00
70250;BME280;57644;48.416;-123.374;2023-02-10T07:50:21;101638.20;;;-0.22;100.00
70250;BME280;57644;48.416;-123.374;2023-02-10T07:52:52;101645.84;;;-0.20;100.00
70250;BME280;57644;48.416;-123.374;2023-02-10T07:55:22;101651.99;;;-0.10;100.00
70250;BME280;57644;48.416;-123.374;2023-02-10T07:57:53;101654.24;;;-0.10;100.00
70250;BME280;57644;48.416;-123.374;2023-02-10T08:00:23;101656.52;;;-0.27;100.00
70250;BME280;57644;48.416;-123.374;2023-02-10T08:02:54;101652.90;;;-0.26;100.00
70250;BME280;57644;48.416;-123.374;2023-02-10T08:05:24;101656.47;;;-0.18;100.00
70250;BME280;57644;48.416;-123.374;2023-02-10T08:07:55;101653.78;;;-0.09;100.00
70250;BME280;57644;48.416;-123.374;2023-02-10T08:10:26;101656.87;;;-0.15;100.00
70250;BME280;57644;48.416;-123.374;2023-02-10T08:12:56;101654.40;;;-0.10;100.00
70250;BME280;57644;48.416;-123.374;2023-02-10T08:15:27;101649.68;;;-0.19;100.00
70250;BME280;57644;48.416;-123.374;2023-02-10T08:17:58;101660.36;;;-0.20;100.00
70250;BME280;57644;48.416;-123.374;2023-02-10T08:20:27;101662.83;;;-0.53;100.00
70250;BME280;57644;48.416;-123.374;2023-02-10T08:22:58;101659.36;;;-0.46;100.00
70250;BME280;57644;48.416;-123.374;2023-02-10T08:25:28;101656.63;;;-0.61;100.00
70250;BME280;57644;48.416;-123.374;2023-02-10T08:27:59;101669.19;;;-0.77;100.00
70250;BME280;57644;48.416;-123.374;2023-02-10T08:30:29;101664.50;;;-0.66;100.00
70250;BME280;57644;48.416;-123.374;2023-02-10T08:33:00;101672.51;;;-0.53;100.00
70250;BME280;57644;48.416;-123.374;2023-02-10T08:35:31;101678.06;;;-0.56;100.00
70250;BME280;57644;48.416;-123.374;2023-02-10T08:38:01;101677.87;;;-0.49;100.00
70250;BME280;57644;48.416;-123.374;2023-02-10T08:40:32;101681.40;;;-0.34;100.00
70250;BME280;57644;48.416;-123.374;2023-02-10T08:43:03;101685.83;;;-0.51;100.00
70250;BME280;57644;48.416;-123.374;2023-02-10T08:45:33;101693.22;;;-0.46;100.00
70250;BME280;57644;48.416;-123.374;2023-02-10T08:48:03;101701.87;;;-0.37;100.00
70250;BME280;57644;48.416;-123.374;2023-02-10T08:50:34;101710.48;;;-0.37;100.00
70250;BME280;57644;48.416;-123.374;2023-02-10T08:53:04;101712.98;;;-0.34;100.00
70250;BME280;57644;48.416;-123.374;2023-02-10T08:55:35;101709.67;;;-0.31;100.00
70250;BME280;57644;48.416;-123.374;2023-02-10T08:58:05;101720.26;;;-0.26;100.00
70250;BME280;57644;48.416;-123.374;2023-02-10T09:00:36;101724.10;;;-0.23;100.00
70250;BME280;57644;48.416;-123.374;2023-02-10T09:03:06;101732.53;;;-0.23;100.00
70250;BME280;57644;48.416;-123.374;2023-02-10T09:05:37;101739.40;;;-0.33;100.00
70250;BME280;57644;48.416;-123.374;2023-02-10T09:08:09;101744.70;;;-0.31;100.00
70250;BME280;57644;48.416;-123.374;2023-02-10T09:10:40;101747.11;;;-0.31;100.00
70250;BME280;57644;48.416;-123.374;2023-02-10T09:13:08;101757.33;;;-0.37;100.00
70250;BME280;57644;48.416;-123.374;2023-02-10T09:15:41;101765.21;;;-0.27;100.00
70250;BME280;57644;48.416;-123.374;2023-02-10T09:18:10;101768.38;;;-0.37;100.00
70250;BME280;57644;48.416;-123.374;2023-02-10T09:20:40;101767.94;;;-0.31;100.00
70250;BME280;57644;48.416;-123.374;2023-02-10T09:23:10;101771.27;;;-0.30;100.00
70250;BME280;57644;48.416;-123.374;2023-02-10T09:25:41;101775.67;;;-0.15;100.00
70250;BME280;57644;48.416;-123.374;2023-02-10T09:28:11;101772.58;;;-0.14;100.00
70250;BME280;57644;48.416;-123.374;2023-02-10T09:30:42;101785.27;;;-0.10;100.00
70250;BME280;57644;48.416;-123.374;2023-02-10T09:33:12;101792.63;;;-0.13;100.00
70250;BME280;57644;48.416;-123.374;2023-02-10T09:35:43;101791.67;;;-0.07;100.00
70250;BME280;57644;48.416;-123.374;2023-02-10T09:38:14;101796.27;;;-0.18;100.00
70250;BME280;57644;48.416;-123.374;2023-02-10T09:40:50;101795.08;;;-0.09;100.00
70250;BME280;57644;48.416;-123.374;2023-02-10T09:43:24;101800.17;;;-0.10;100.00
70250;BME280;57644;48.416;-123.374;2023-02-10T09:45:48;101807.29;;;0.02;100.00
70250;BME280;57644;48.416;-123.374;2023-02-10T09:48:27;101804.57;;;-0.01;100.00
70250;BME280;57644;48.416;-123.374;2023-02-10T09:50:55;101808.80;;;-0.34;100.00
70250;BME280;57644;48.416;-123.374;2023-02-10T09:53:18;101807.19;;;-0.22;100.00
70250;BME280;57644;48.416;-123.374;2023-02-10T09:55:49;101813.78;;;-0.38;100.00
70250;BME280;57644;48.416;-123.374;2023-02-10T09:58:24;101816.99;;;-0.17;100.00
70250;BME280;57644;48.416;-123.374;2023-02-10T10:00:52;101824.94;;;-0.12;100.00
70250;BME280;57644;48.416;-123.374;2023-02-10T10:03:21;101833.62;;;-0.12;100.00
70250;BME280;57644;48.416;-123.374;2023-02-10T10:06:00;101837.66;;;-0.10;100.00
70250;BME280;57644;48.416;-123.374;2023-02-10T10:08:25;101837.24;;;-0.25;100.00
70250;BME280;57644;48.416;-123.374;2023-02-10T10:10:51;101840.10;;;-0.31;100.00
70250;BME280;57644;48.416;-123.374;2023-02-10T10:13:24;101840.33;;;-0.50;100.00
70250;BME280;57644;48.416;-123.374;2023-02-10T10:16:02;101839.96;;;-0.46;100.00
70250;BME280;57644;48.416;-123.374;2023-02-10T10:18:26;101840.74;;;-0.52;100.00
70250;BME280;57644;48.416;-123.374;2023-02-10T10:20:55;101839.28;;;-0.39;100.00
70250;BME280;57644;48.416;-123.374;2023-02-10T10:23:34;101834.35;;;-0.44;100.00
70250;BME280;57644;48.416;-123.374;2023-02-10T10:26:01;101828.30;;;-0.41;100.00
70250;BME280;57644;48.416;-123.374;2023-02-10T10:28:31;101833.80;;;-0.43;100.00
70250;BME280;57644;48.416;-123.374;2023-02-10T10:30:57;101832.62;;;-0.49;100.00
70250;BME280;57644;48.416;-123.374;2023-02-10T10:33:30;101838.50;;;-0.91;100.00
70250;BME280;57644;48.416;-123.374;2023-02-10T10:35:54;101838.59;;;-0.75;100.00
70250;BME280;57644;48.416;-123.374;2023-02-10T10:38:30;101837.52;;;-0.54;100.00
70250;BME280;57644;48.416;-123.374;2023-02-10T10:40:59;101832.62;;;-0.53;100.00
70250;BME280;57644;48.416;-123.374;2023-02-10T10:43:29;101830.19;;;-0.60;100.00
70250;BME280;57644;48.416;-123.374;2023-02-10T10:46:03;101833.69;;;-0.51;100.00
70250;BME280;57644;48.416;-123.374;2023-02-10T10:48:29;101836.18;;;-0.57;100.00
70250;BME280;57644;48.416;-123.374;2023-02-10T10:51:01;101838.48;;;-0.70;100.00
70250;BME280;57644;48.416;-123.374;2023-02-10T10:53:36;101834.96;;;-0.66;100.00
70250;BME280;57644;48.416;-123.374;2023-02-10T10:55:59;101833.23;;;-0.80;100.00
70250;BME280;57644;48.416;-123.374;2023-02-10T10:58:34;101830.04;;;-0.77;100.00
70250;BME280;57644;48.416;-123.374;2023-02-10T11:01:01;101831.35;;;-0.74;100.00
70250;BME280;57644;48.416;-123.374;2023-02-10T11:03:30;101833.00;;;-0.87;100.00
70250;BME280;57644;48.416;-123.374;2023-02-10T11:06:04;101827.09;;;-0.71;100.00
70250;BME280;57644;48.416;-123.374;2023-02-10T11:08:34;101831.42;;;-0.86;100.00
70250;BME280;57644;48.416;-123.374;2023-02-10T11:11:03;101830.15;;;-0.79;100.00
70250;BME280;57644;48.416;-123.374;2023-02-10T11:13:32;101820.79;;;-0.68;100.00
70250;BME280;57644;48.416;-123.374;2023-02-10T11:16:04;101819.52;;;-0.96;100.00
70250;BME280;57644;48.416;-123.374;2023-02-10T11:18:33;101823.09;;;-0.98;100.00
70250;BME280;57644;48.416;-123.374;2023-02-10T11:21:07;101813.07;;;-0.68;100.00
70250;BME280;57644;48.416;-123.374;2023-02-10T11:26:15;101822.07;;;-0.58;100.00
70250;BME280;57644;48.416;-123.374;2023-02-10T11:28:35;101817.22;;;-0.62;100.00
70250;BME280;57644;48.416;-123.374;2023-02-10T11:31:21;101810.52;;;-0.67;100.00
70250;BME280;57644;48.416;-123.374;2023-02-10T11:33:36;101815.28;;;-0.73;100.00
70250;BME280;57644;48.416;-123.374;2023-02-10T11:36:09;101822.34;;;-0.93;100.00
70250;BME280;57644;48.416;-123.374;2023-02-10T11:38:37;101821.40;;;-0.86;100.00
70250;BME280;57644;48.416;-123.374;2023-02-10T11:41:09;101829.61;;;-0.89;100.00
70250;BME280;57644;48.416;-123.374;2023-02-10T11:43:42;101829.08;;;-1.04;100.00
70250;BME280;57644;48.416;-123.374;2023-02-10T11:46:17;101832.87;;;-1.07;100.00
70250;BME280;57644;48.416;-123.374;2023-02-10T11:48:39;101828.69;;;-0.97;100.00
70250;BME280;57644;48.416;-123.374;2023-02-10T11:51:16;101831.77;;;-0.78;100.00
70250;BME280;57644;48.416;-123.374;2023-02-10T11:53:41;101831.50;;;-0.93;100.00
70250;BME280;57644;48.416;-123.374;2023-02-10T11:56:16;101835.36;;;-1.03;100.00
70250;BME280;57644;48.416;-123.374;2023-02-10T11:58:56;101841.82;;;-0.82;100.00
70250;BME280;57644;48.416;-123.374;2023-02-10T12:01:16;101838.02;;;-0.75;100.00
70250;BME280;57644;48.416;-123.374;2023-02-10T12:03:52;101840.33;;;-0.92;100.00
70250;BME280;57644;48.416;-123.374;2023-02-10T12:06:16;101841.02;;;-0.87;100.00
70250;BME280;57644;48.416;-123.374;2023-02-10T12:08:50;101842.41;;;-0.81;100.00
70250;BME280;57644;48.416;-123.374;2023-02-10T12:11:21;101840.30;;;-0.78;100.00
70250;BME280;57644;48.416;-123.374;2023-02-10T12:13:52;101837.24;;;-0.87;100.00
70250;BME280;57644;48.416;-123.374;2023-02-10T12:16:20;101838.34;;;-0.82;100.00
70250;BME280;57644;48.416;-123.374;2023-02-10T12:18:55;101836.18;;;-0.90;100.00
70250;BME280;57644;48.416;-123.374;2023-02-10T12:21:33;101834.33;;;-0.92;100.00
70250;BME280;57644;48.416;-123.374;2023-02-10T12:23:54;101832.99;;;-0.89;100.00
70250;BME280;57644;48.416;-123.374;2023-02-10T12:26:21;101845.75;;;-1.17;100.00
70250;BME280;57644;48.416;-123.374;2023-02-10T12:28:59;101842.69;;;-1.34;100.00
70250;BME280;57644;48.416;-123.374;2023-02-10T12:31:26;101845.66;;;-1.20;100.00
70250;BME280;57644;48.416;-123.374;2023-02-10T12:36:24;101838.12;;;-1.40;100.00
70250;BME280;57644;48.416;-123.374;2023-02-10T12:39:00;101830.58;;;-1.30;100.00
70250;BME280;57644;48.416;-123.374;2023-02-10T12:41:26;101831.08;;;-1.21;100.00
70250;BME280;57644;48.416;-123.374;2023-02-10T12:44:03;101827.55;;;-1.07;100.00
70250;BME280;57644;48.416;-123.374;2023-02-10T12:46:25;101845.90;;;-0.99;100.00
70250;BME280;57644;48.416;-123.374;2023-02-10T12:49:04;101845.50;;;-1.02;100.00